Time;durP1;ratioP1;P1;durP2;ratioP2;P2;SDS_P1;SDS_P2;PMS_P1;PMS_P2;Temp;Humidity;BMP_temperature;BMP_pressure;BME280_temperature;BME280_humidity;BME280_pressure;Samples;Min_cycle;Max_cycle;Signal;HPM_P1;HPM_P2
2023/06/13 00:00:08;;;;;;;3.90;3.05;;;20.80;69.80;;;;;;4178157;28;20062;-60
2023/06/13 00:02:10;;;;;;;8.25;3.45;;;20.90;70.00;;;;;;4180703;28;20049;-60
2023/06/13 00:04:11;;;;;;;4.57;3.27;;;20.90;69.50;;;;;;4174860;28;20048;-59
2023/06/13 00:06:13;;;;;;;5.50;3.30;;;20.90;69.20;;;;;;4180174;28;20033;-59
2023/06/13 00:08:17;;;;;;;5.18;3.42;;;20.90;69.00;;;;;;4190584;28;20029;-61
2023/06/13 00:10:18;;;;;;;5.53;3.75;;;21.00;68.90;;;;;;4181875;28;20029;-60
2023/06/13 00:12:20;;;;;;;11.68;3.17;;;21.00;69.00;;;;;;4193195;28;20032;-59
2023/06/13 00:14:23;;;;;;;5.15;3.40;;;21.10;69.00;;;;;;4188286;28;20186;-59
2023/06/13 00:16:25;;;;;;;3.80;3.00;;;21.20;69.50;;;;;;4184350;28;20043;-59
2023/06/13 00:18:29;;;;;;;4.15;2.78;;;21.30;69.40;;;;;;4176012;28;20083;-59
2023/06/13 00:20:30;;;;;;;4.00;2.97;;;21.30;70.10;;;;;;4180825;28;20591;-60
2023/06/13 00:22:31;;;;;;;4.25;3.03;;;21.40;70.20;;;;;;4193386;28;20075;-59
2023/06/13 00:24:32;;;;;;;4.57;3.25;;;21.50;70.20;;;;;;4182248;28;20498;-59
2023/06/13 00:26:33;;;;;;;5.60;3.00;;;21.60;70.90;;;;;;4182984;28;20163;-59
2023/06/13 00:28:33;;;;;;;4.07;2.60;;;21.70;72.10;;;;;;4180251;28;20044;-59
2023/06/13 00:30:34;;;;;;;4.45;2.95;;;21.80;72.60;;;;;;4180557;28;20032;-60
2023/06/13 00:32:35;;;;;;;5.43;3.13;;;21.80;72.10;;;;;;4180455;28;20037;-59
2023/06/13 00:34:37;;;;;;;4.03;3.00;;;21.90;71.10;;;;;;4183999;28;20029;-59
2023/06/13 00:36:37;;;;;;;6.35;3.53;;;21.90;71.70;;;;;;4187213;28;20032;-60
2023/06/13 00:38:38;;;;;;;5.35;3.30;;;22.00;70.80;;;;;;4193038;28;20082;-59
2023/06/13 00:40:40;;;;;;;4.10;3.00;;;22.00;70.10;;;;;;4169369;28;20036;-60
2023/06/13 00:42:40;;;;;;;3.45;2.95;;;22.00;70.70;;;;;;4190674;28;20029;-60
2023/06/13 00:44:41;;;;;;;6.30;2.90;;;22.10;70.40;;;;;;4184334;28;20513;-59
2023/06/13 00:46:43;;;;;;;4.63;3.10;;;22.10;71.20;;;;;;4182355;28;20476;-59
2023/06/13 00:48:44;;;;;;;5.15;3.40;;;22.20;71.00;;;;;;4192876;28;20475;-59
2023/06/13 00:50:45;;;;;;;7.38;3.40;;;22.20;69.40;;;;;;4166897;28;20083;-59
2023/06/13 00:52:47;;;;;;;4.28;3.08;;;22.20;70.10;;;;;;4193220;28;20031;-60
2023/06/13 00:54:48;;;;;;;5.30;3.17;;;22.20;70.20;;;;;;4189886;28;20392;-59
2023/06/13 00:56:49;;;;;;;4.07;3.15;;;22.30;68.90;;;;;;4181988;28;20271;-59
2023/06/13 00:58:50;;;;;;;5.82;3.47;;;22.30;68.80;;;;;;4173133;28;20040;-59
2023/06/13 01:00:52;;;;;;;4.30;3.03;;;22.30;68.00;;;;;;4173739;28;20033;-59
2023/06/13 01:02:59;;;;;;;5.15;3.30;;;22.30;68.10;;;;;;4184915;28;20063;-59
2023/06/13 01:05:03;;;;;;;4.85;3.28;;;22.30;67.20;;;;;;4166739;28;20039;-59
2023/06/13 01:07:05;;;;;;;4.35;3.25;;;22.40;68.00;;;;;;4160469;28;20038;-60
2023/06/13 01:09:07;;;;;;;4.63;3.20;;;22.40;67.40;;;;;;4185302;28;20036;-60
2023/06/13 01:11:42;;;;;;;3.25;2.60;;;22.40;68.30;;;;;;4186261;28;20063;-59
2023/06/13 01:13:54;;;;;;;4.55;3.20;;;22.30;67.00;;;;;;4155934;28;20025;-59
2023/06/13 01:16:02;;;;;;;3.15;2.80;;;22.30;66.80;;;;;;4174032;28;20044;-59
2023/06/13 01:18:07;;;;;;;4.63;3.22;;;22.30;67.50;;;;;;4189462;28;20041;-59
2023/06/13 01:20:14;;;;;;;4.55;3.22;;;22.30;67.20;;;;;;4181779;28;20049;-60
2023/06/13 01:22:21;;;;;;;4.78;3.10;;;22.30;67.30;;;;;;4175456;28;20116;-59
2023/06/13 01:24:44;;;;;;;5.78;3.47;;;22.30;69.60;;;;;;4186681;28;20041;-61
2023/06/13 01:26:59;;;;;;;5.07;3.15;;;22.30;69.90;;;;;;4170937;28;20029;-59
2023/06/13 01:29:01;;;;;;;4.72;3.10;;;22.20;70.40;;;;;;4192607;28;20392;-60
2023/06/13 01:31:05;;;;;;;5.40;3.30;;;22.20;69.70;;;;;;4173273;28;20404;-60
2023/06/13 01:33:07;;;;;;;5.40;3.50;;;22.20;71.00;;;;;;4192072;28;20507;-59
2023/06/13 01:35:08;;;;;;;4.03;3.05;;;22.10;69.30;;;;;;4189532;28;20136;-60
2023/06/13 01:37:08;;;;;;;5.13;3.50;;;22.20;70.10;;;;;;4177709;28;20037;-59
2023/06/13 01:39:09;;;;;;;4.10;3.33;;;22.10;70.20;;;;;;4191512;28;20039;-59
2023/06/13 01:41:10;;;;;;;7.68;3.63;;;22.10;70.20;;;;;;4183674;28;20542;-59
2023/06/13 01:43:10;;;;;;;5.72;3.53;;;22.10;70.00;;;;;;4186813;28;20035;-59
2023/06/13 01:45:12;;;;;;;5.65;3.30;;;22.00;70.40;;;;;;4184586;28;20037;-60
2023/06/13 01:47:37;;;;;;;6.18;3.78;;;22.00;69.40;;;;;;4183519;28;20040;-59
2023/06/13 01:49:48;;;;;;;4.93;3.50;;;21.90;70.50;;;;;;4191971;28;20037;-59
2023/06/13 01:52:07;;;;;;;4.30;3.38;;;21.90;70.40;;;;;;4178501;28;20033;-60
2023/06/13 01:54:11;;;;;;;4.50;3.28;;;21.90;71.60;;;;;;4163809;28;20041;-59
2023/06/13 01:56:19;;;;;;;4.63;3.28;;;21.80;71.30;;;;;;4177632;28;20423;-59
2023/06/13 01:58:26;;;;;;;4.50;3.35;;;21.80;70.70;;;;;;4196425;28;20107;-57
2023/06/13 02:00:27;;;;;;;7.63;3.65;;;21.70;71.70;;;;;;4180504;28;20037;-59
2023/06/13 02:02:29;;;;;;;4.82;3.67;;;21.80;71.80;;;;;;4189156;28;20048;-59
2023/06/13 02:04:29;;;;;;;5.20;3.67;;;21.70;71.70;;;;;;4195104;28;20044;-59
2023/06/13 02:06:32;;;;;;;5.47;3.45;;;21.70;72.10;;;;;;4171248;28;20041;-59
2023/06/13 02:08:33;;;;;;;6.05;3.35;;;21.70;72.80;;;;;;4163553;28;20038;-59
2023/06/13 02:10:34;;;;;;;6.50;3.63;;;21.70;72.00;;;;;;4164949;28;20056;-59
2023/06/13 02:12:35;;;;;;;7.43;3.78;;;21.70;72.80;;;;;;4165748;28;20037;-60
2023/06/13 02:14:36;;;;;;;5.22;3.47;;;21.60;72.20;;;;;;4166247;28;20040;-59
2023/06/13 02:16:39;;;;;;;4.97;3.42;;;21.60;72.70;;;;;;4165967;28;20468;-60
2023/06/13 02:18:40;;;;;;;5.65;3.60;;;21.60;72.40;;;;;;4180724;28;20037;-59
2023/06/13 02:20:41;;;;;;;6.10;3.10;;;21.60;71.50;;;;;;4164245;28;20033;-59
2023/06/13 02:22:41;;;;;;;5.18;3.40;;;21.50;72.00;;;;;;4168352;28;20098;-59
2023/06/13 02:24:42;;;;;;;5.20;3.42;;;21.50;73.20;;;;;;4167053;28;21606;-59
2023/06/13 02:26:44;;;;;;;3.95;3.30;;;21.50;73.50;;;;;;4163017;28;20132;-59
2023/06/13 02:28:45;;;;;;;5.45;3.63;;;21.40;73.30;;;;;;4162700;28;20103;-59
2023/06/13 02:30:46;;;;;;;8.40;3.63;;;21.40;74.20;;;;;;4160000;28;20041;-59
2023/06/13 02:32:48;;;;;;;4.65;3.35;;;21.40;74.00;;;;;;4173781;28;20033;-59
2023/06/13 02:34:49;;;;;;;6.03;3.67;;;21.30;73.60;;;;;;4188114;28;22498;-62
2023/06/13 02:36:50;;;;;;;4.97;3.58;;;21.30;73.80;;;;;;4179422;28;20030;-59
2023/06/13 02:38:50;;;;;;;4.45;3.10;;;21.30;73.90;;;;;;4174413;28;20041;-59
2023/06/13 02:40:51;;;;;;;3.45;2.95;;;21.20;72.70;;;;;;4189670;28;20025;-60
2023/06/13 02:42:53;;;;;;;4.60;3.40;;;21.20;74.40;;;;;;4171226;28;20083;-59
2023/06/13 02:44:54;;;;;;;5.80;3.40;;;21.10;74.90;;;;;;4163717;28;20051;-60
2023/06/13 02:46:54;;;;;;;4.95;3.45;;;21.10;72.90;;;;;;4175826;28;20061;-59
2023/06/13 02:48:55;;;;;;;4.75;3.22;;;21.10;73.70;;;;;;4162618;28;20040;-59
2023/06/13 02:50:57;;;;;;;5.85;3.15;;;21.10;73.40;;;;;;4161874;28;20042;-59
2023/06/13 02:52:57;;;;;;;5.93;3.30;;;21.00;74.10;;;;;;4162822;28;20033;-59
2023/06/13 02:54:58;;;;;;;5.07;3.47;;;21.00;74.70;;;;;;4165496;28;20123;-59
2023/06/13 02:56:58;;;;;;;3.97;3.40;;;21.00;75.40;;;;;;4162770;28;20087;-58
2023/06/13 02:58:59;;;;;;;4.22;3.17;;;20.90;75.60;;;;;;4169345;28;20041;-59
2023/06/13 03:01:00;;;;;;;8.85;3.33;;;21.00;75.80;;;;;;4164484;28;20477;-59
2023/06/13 03:03:02;;;;;;;5.50;3.10;;;20.90;75.00;;;;;;4164683;28;20081;-59
2023/06/13 03:05:04;;;;;;;;;;;20.90;74.20;;;;;;4165583;28;20507;-64
2023/06/13 03:07:05;;;;;;;5.65;3.72;;;20.90;74.50;;;;;;4162874;28;19923;-59
2023/06/13 03:09:06;;;;;;;5.13;3.60;;;20.80;74.90;;;;;;4164684;28;20138;-59
2023/06/13 03:11:07;;;;;;;4.22;3.30;;;20.80;75.70;;;;;;4162716;28;20037;-59
2023/06/13 03:13:07;;;;;;;5.93;3.60;;;20.70;75.10;;;;;;4170439;28;20656;-59
2023/06/13 03:15:08;;;;;;;10.77;3.55;;;20.70;77.00;;;;;;4187771;28;20048;-61
2023/06/13 03:17:08;;;;;;;5.47;3.63;;;20.70;76.10;;;;;;4178588;28;20029;-59
2023/06/13 03:19:10;;;;;;;4.57;3.35;;;20.60;76.00;;;;;;4178992;28;20052;-59
2023/06/13 03:21:11;;;;;;;4.95;3.38;;;20.60;74.40;;;;;;4177929;28;20040;-59
2023/06/13 03:23:15;;;;;;;4.25;3.25;;;20.60;75.10;;;;;;4178936;28;20464;-59
2023/06/13 03:25:16;;;;;;;7.40;3.65;;;20.60;76.10;;;;;;4163842;28;20052;-59
2023/06/13 03:27:18;;;;;;;4.78;3.90;;;20.60;76.30;;;;;;4165609;28;20048;-59
2023/06/13 03:29:19;;;;;;;4.50;3.60;;;20.50;76.50;;;;;;4163741;28;20040;-60
2023/06/13 03:31:20;;;;;;;4.40;3.30;;;20.50;76.60;;;;;;4162750;28;20033;-62
2023/06/13 03:33:22;;;;;;;5.82;3.60;;;20.50;75.80;;;;;;4164493;28;20041;-59
2023/06/13 03:35:22;;;;;;;7.72;3.95;;;20.50;76.00;;;;;;4163697;28;20051;-59
2023/06/13 03:37:23;;;;;;;4.68;3.55;;;20.50;75.40;;;;;;4164817;28;20392;-59
2023/06/13 03:39:23;;;;;;;5.38;3.50;;;20.50;75.80;;;;;;4165460;28;20083;-61
2023/06/13 03:41:25;;;;;;;7.90;4.68;;;20.50;76.30;;;;;;4162719;28;20033;-59
2023/06/13 03:43:26;;;;;;;5.22;3.67;;;20.50;76.20;;;;;;4162616;28;20049;-59
2023/06/13 03:45:27;;;;;;;7.85;3.92;;;20.50;76.20;;;;;;4163812;28;20821;-59
2023/06/13 03:47:27;;;;;;;4.03;3.28;;;20.40;76.90;;;;;;4163243;28;20112;-59
2023/06/13 03:49:28;;;;;;;7.00;3.38;;;20.50;76.60;;;;;;4169740;28;20044;-58
2023/06/13 03:51:28;;;;;;;5.97;3.65;;;20.40;78.00;;;;;;4189144;28;20028;-59
2023/06/13 03:53:30;;;;;;;5.70;3.55;;;20.40;77.10;;;;;;4191465;28;20032;-59
2023/06/13 03:55:31;;;;;;;6.35;3.67;;;20.40;77.50;;;;;;4179902;28;20075;-59
2023/06/13 03:57:32;;;;;;;6.63;3.75;;;20.40;77.60;;;;;;4172583;28;20061;-59
2023/06/13 03:59:34;;;;;;;5.32;3.78;;;20.40;77.00;;;;;;4174323;28;20025;-59
2023/06/13 04:01:34;;;;;;;4.95;3.70;;;20.30;78.20;;;;;;4159561;28;20041;-59
2023/06/13 04:03:39;;;;;;;6.30;3.70;;;20.30;78.10;;;;;;4164329;28;20048;-59
2023/06/13 04:05:39;;;;;;;6.85;3.75;;;20.30;78.00;;;;;;4184705;28;22943;-59
2023/06/13 04:07:42;;;;;;;5.85;3.92;;;20.30;77.90;;;;;;4178098;28;20040;-60
2023/06/13 04:09:42;;;;;;;6.07;4.07;;;20.20;77.90;;;;;;4174332;28;20029;-58
2023/06/13 04:11:43;;;;;;;7.18;4.05;;;20.20;77.90;;;;;;4185347;28;20035;-58
2023/06/13 04:13:44;;;;;;;5.28;3.72;;;20.20;77.60;;;;;;4192260;28;20028;-59
2023/06/13 04:15:45;;;;;;;4.80;3.63;;;20.20;77.60;;;;;;4177627;28;20045;-59
2023/06/13 04:17:45;;;;;;;6.85;3.65;;;20.20;77.90;;;;;;4178206;28;20036;-59
2023/06/13 04:19:48;;;;;;;6.03;4.45;;;20.20;77.60;;;;;;4171154;28;20040;-59
2023/06/13 04:21:51;;;;;;;8.52;4.40;;;20.20;78.00;;;;;;4161188;28;20037;-59
2023/06/13 04:23:52;;;;;;;5.88;3.95;;;20.10;76.80;;;;;;4169368;28;20037;-59
2023/06/13 04:25:53;;;;;;;5.97;3.97;;;20.00;77.10;;;;;;4161345;28;20040;-59
2023/06/13 04:27:57;;;;;;;5.72;3.80;;;20.00;77.70;;;;;;4163503;28;20029;-59
2023/06/13 04:29:59;;;;;;;5.80;4.13;;;19.90;78.00;;;;;;4162966;28;20075;-59
2023/06/13 04:32:02;;;;;;;6.80;4.00;;;19.90;78.70;;;;;;4161972;28;20392;-59
2023/06/13 04:34:03;;;;;;;4.18;3.42;;;19.90;78.70;;;;;;4163978;28;20657;-59
2023/06/13 04:36:05;;;;;;;3.97;3.28;;;19.90;78.70;;;;;;4165478;28;20490;-58
2023/06/13 04:38:08;;;;;;;5.35;3.72;;;19.90;78.90;;;;;;4164730;28;20032;-59
2023/06/13 04:40:10;;;;;;;5.80;3.55;;;19.90;79.40;;;;;;4172235;28;20525;-59
2023/06/13 04:42:14;;;;;;;6.27;3.87;;;19.90;79.60;;;;;;4182876;28;20036;-59
2023/06/13 04:44:14;;;;;;;5.57;4.10;;;19.80;79.50;;;;;;4183809;28;20040;-59
2023/06/13 04:46:18;;;;;;;5.07;3.97;;;19.70;79.90;;;;;;4172393;28;20428;-59
2023/06/13 04:48:25;;;;;;;8.40;4.20;;;19.60;80.80;;;;;;4171285;28;20722;-59
2023/06/13 04:50:25;;;;;;;7.30;4.65;;;19.50;81.10;;;;;;4167887;28;20033;-60
2023/06/13 04:52:32;;;;;;;5.43;3.90;;;19.40;82.20;;;;;;4177810;28;20029;-59
2023/06/13 04:54:33;;;;;;;7.18;4.10;;;19.40;82.70;;;;;;4172377;28;20474;-59
2023/06/13 04:56:34;;;;;;;5.63;4.32;;;19.40;83.00;;;;;;4173823;28;20036;-58
2023/06/13 04:58:35;;;;;;;14.48;4.40;;;19.40;83.30;;;;;;4179148;28;20115;-59
2023/06/13 05:00:36;;;;;;;6.72;4.15;;;19.30;82.60;;;;;;4174685;28;20051;-59
2023/06/13 05:02:38;;;;;;;7.97;5.10;;;19.20;83.70;;;;;;4175635;28;20564;-59
2023/06/13 05:04:39;;;;;;;;;;;19.20;84.20;;;;;;4172911;28;20041;-59
2023/06/13 05:06:40;;;;;;;7.18;4.35;;;19.10;84.70;;;;;;4161941;28;19913;-59
2023/06/13 05:08:41;;;;;;;9.27;4.85;;;19.10;84.20;;;;;;4187273;28;20043;-59
2023/06/13 05:10:41;;;;;;;6.32;4.95;;;19.00;84.10;;;;;;4176148;28;20049;-59
2023/06/13 05:12:42;;;;;;;6.50;4.30;;;19.00;85.30;;;;;;4174369;28;20025;-59
2023/06/13 05:14:42;;;;;;;7.00;4.75;;;19.00;84.40;;;;;;4188748;28;20496;-59
2023/06/13 05:16:43;;;;;;;7.00;4.22;;;19.10;85.20;;;;;;4174662;28;20379;-59
2023/06/13 05:18:44;;;;;;;7.78;4.10;;;19.20;84.80;;;;;;4171284;28;20065;-59
2023/06/13 05:20:46;;;;;;;8.20;4.55;;;19.20;84.80;;;;;;4181017;28;20033;-59
2023/06/13 05:22:47;;;;;;;7.35;4.53;;;19.30;84.70;;;;;;4178121;28;20044;-59
2023/06/13 05:24:48;;;;;;;9.05;4.80;;;19.40;83.70;;;;;;4173368;28;20129;-60
2023/06/13 05:26:49;;;;;;;7.57;4.53;;;19.40;83.30;;;;;;4168865;28;20100;-59
2023/06/13 05:28:50;;;;;;;5.00;3.55;;;19.50;82.50;;;;;;4188496;28;20024;-59
2023/06/13 05:30:51;;;;;;;7.85;4.45;;;19.60;83.30;;;;;;4182422;28;20108;-59
2023/06/13 05:32:52;;;;;;;9.77;4.72;;;19.70;82.00;;;;;;4186459;28;20110;-59
2023/06/13 05:34:53;;;;;;;7.93;4.60;;;19.80;82.60;;;;;;4194374;28;20036;-60
2023/06/13 05:36:54;;;;;;;9.15;4.38;;;19.80;81.70;;;;;;4178405;28;20043;-60
2023/06/13 05:38:55;;;;;;;7.82;4.15;;;19.90;81.90;;;;;;4191424;28;20041;-59
2023/06/13 05:40:56;;;;;;;5.95;3.95;;;20.00;82.30;;;;;;4186099;28;20536;-60
2023/06/13 05:42:57;;;;;;;12.35;4.78;;;20.10;82.30;;;;;;4179092;28;20025;-59
2023/06/13 05:44:58;;;;;;;6.82;4.22;;;20.10;80.90;;;;;;4181665;28;20045;-59
2023/06/13 05:46:58;;;;;;;5.35;3.88;;;20.30;81.80;;;;;;4174108;28;20044;-59
2023/06/13 05:48:59;;;;;;;6.80;4.60;;;20.50;81.50;;;;;;4168928;28;20485;-60
2023/06/13 05:51:03;;;;;;;6.22;4.13;;;21.00;79.70;;;;;;4169057;28;20504;-62
2023/06/13 05:53:04;;;;;;;7.50;4.30;;;21.40;78.60;;;;;;4185699;28;20112;-62
2023/06/13 05:55:05;;;;;;;7.50;4.97;;;21.90;75.40;;;;;;4190020;28;20036;-63
2023/06/13 05:57:06;;;;;;;8.43;4.90;;;22.30;74.00;;;;;;4179629;28;20036;-62
2023/06/13 05:59:06;;;;;;;5.57;4.18;;;22.60;74.10;;;;;;4192564;28;20475;-62
2023/06/13 06:01:10;;;;;;;8.35;4.10;;;23.00;74.80;;;;;;4182736;28;20044;-62
2023/06/13 06:03:11;;;;;;;5.60;4.03;;;23.30;71.10;;;;;;4188657;28;20503;-63
2023/06/13 06:05:11;;;;;;;12.27;4.68;;;23.70;71.20;;;;;;4193783;28;20056;-63
2023/06/13 06:07:12;;;;;;;6.57;4.22;;;23.90;69.60;;;;;;4194373;28;20043;-63
2023/06/13 06:09:12;;;;;;;9.48;4.28;;;24.20;68.10;;;;;;4196409;28;20082;-63
2023/06/13 06:11:13;;;;;;;8.63;4.00;;;24.40;66.60;;;;;;4195418;28;20039;-63
2023/06/13 06:13:14;;;;;;;5.85;3.40;;;24.70;67.30;;;;;;4168429;28;20118;-63
2023/06/13 06:15:14;;;;;;;9.63;3.72;;;25.10;65.90;;;;;;4165509;28;20052;-63
2023/06/13 06:17:15;;;;;;;11.50;4.20;;;25.30;65.60;;;;;;4172095;28;20042;-63
2023/06/13 06:19:15;;;;;;;7.30;4.38;;;25.50;64.70;;;;;;4194563;28;21572;-63
2023/06/13 06:21:16;;;;;;;5.65;3.83;;;25.80;63.60;;;;;;4192789;28;20036;-63
2023/06/13 06:23:17;;;;;;;6.15;3.72;;;25.80;61.80;;;;;;4181874;28;20025;-63
2023/06/13 06:25:20;;;;;;;6.65;4.18;;;26.10;62.60;;;;;;4181570;28;20041;-63
2023/06/13 06:27:21;;;;;;;10.38;4.20;;;26.30;62.50;;;;;;4177268;28;20038;-63
2023/06/13 06:29:21;;;;;;;9.20;3.85;;;26.50;59.90;;;;;;4175693;28;20545;-63
2023/06/13 06:31:24;;;;;;;5.65;3.90;;;26.60;60.00;;;;;;4160294;28;20485;-63
2023/06/13 06:33:24;;;;;;;5.50;4.10;;;26.70;59.00;;;;;;4171933;28;20033;-63
2023/06/13 06:35:25;;;;;;;5.47;3.90;;;26.80;58.70;;;;;;4174631;28;20094;-63
2023/06/13 06:37:25;;;;;;;7.32;4.53;;;26.90;58.50;;;;;;4171531;28;20556;-63
2023/06/13 06:39:26;;;;;;;5.93;3.88;;;26.80;57.80;;;;;;4176657;28;20488;-63
2023/06/13 06:41:26;;;;;;;7.70;4.32;;;26.80;57.90;;;;;;4178285;28;20029;-64
2023/06/13 06:43:27;;;;;;;9.00;3.53;;;26.90;58.00;;;;;;4168089;28;20033;-65
2023/06/13 06:45:28;;;;;;;8.63;3.75;;;26.90;58.10;;;;;;4168098;28;20037;-64
2023/06/13 06:47:28;;;;;;;6.43;4.03;;;26.90;58.00;;;;;;4193182;28;20125;-64
2023/06/13 06:49:29;;;;;;;8.52;4.45;;;26.80;58.30;;;;;;4183208;28;20660;-63
2023/06/13 06:51:29;;;;;;;9.38;4.07;;;26.80;58.70;;;;;;4161591;28;20373;-64
2023/06/13 06:53:30;;;;;;;8.27;3.70;;;26.80;58.20;;;;;;4171838;28;20111;-64
2023/06/13 06:55:31;;;;;;;4.68;3.13;;;26.80;58.40;;;;;;4176154;28;20036;-63
2023/06/13 06:57:31;;;;;;;7.57;3.80;;;26.70;58.40;;;;;;4176972;28;20043;-64
2023/06/13 06:59:32;;;;;;;6.95;3.50;;;26.80;58.50;;;;;;4185492;28;20033;-64
2023/06/13 07:01:32;;;;;;;6.50;3.85;;;26.70;58.40;;;;;;4178762;28;20041;-64
2023/06/13 07:03:33;;;;;;;8.45;3.97;;;26.80;58.60;;;;;;4176396;28;20103;-64
2023/06/13 07:05:34;;;;;;;9.93;3.83;;;26.60;56.90;;;;;;4192593;28;20036;-63
2023/06/13 07:07:35;;;;;;;6.25;3.60;;;26.70;58.20;;;;;;4182360;28;20048;-64
2023/06/13 07:09:35;;;;;;;8.32;3.65;;;26.60;57.90;;;;;;4177728;28;20033;-63
2023/06/13 07:11:36;;;;;;;5.93;4.07;;;26.60;58.70;;;;;;4177146;28;20037;-64
2023/06/13 07:13:36;;;;;;;4.72;3.67;;;26.50;58.10;;;;;;4178264;28;20040;-64
2023/06/13 07:15:37;;;;;;;8.05;3.67;;;26.50;58.20;;;;;;4183624;28;20029;-64
2023/06/13 07:17:38;;;;;;;9.10;3.83;;;26.40;56.70;;;;;;4185669;28;20024;-63
2023/06/13 07:19:38;;;;;;;6.13;4.20;;;26.50;57.40;;;;;;4192170;28;20036;-63
2023/06/13 07:21:39;;;;;;;5.03;3.42;;;26.50;57.40;;;;;;4191423;28;20041;-63
2023/06/13 07:23:39;;;;;;;6.47;3.50;;;26.60;58.30;;;;;;4189954;28;20032;-63
2023/06/13 07:25:41;;;;;;;11.35;3.63;;;26.60;57.30;;;;;;4187805;28;20551;-63
2023/06/13 07:27:42;;;;;;;7.65;3.88;;;26.50;57.40;;;;;;4178748;28;20041;-63
2023/06/13 07:29:42;;;;;;;7.30;3.80;;;26.50;57.30;;;;;;4188069;28;20035;-63
2023/06/13 07:31:43;;;;;;;7.78;4.60;;;26.40;57.80;;;;;;4181433;28;20083;-63
2023/06/13 07:33:44;;;;;;;6.18;4.15;;;26.30;58.80;;;;;;4183815;28;20094;-63
2023/06/13 07:35:44;;;;;;;7.13;4.53;;;26.20;57.90;;;;;;4177295;28;20037;-63
2023/06/13 07:37:45;;;;;;;8.82;4.03;;;26.40;58.10;;;;;;4184453;28;20071;-63
2023/06/13 07:39:45;;;;;;;7.15;4.53;;;26.30;57.50;;;;;;4186138;28;20060;-63
2023/06/13 07:41:48;;;;;;;9.77;4.47;;;26.40;58.50;;;;;;4181635;28;20365;-63
2023/06/13 07:43:49;;;;;;;5.95;4.20;;;26.50;56.70;;;;;;4188937;28;20037;-63
2023/06/13 07:45:50;;;;;;;8.23;4.40;;;26.60;56.90;;;;;;4174372;28;20061;-63
2023/06/13 07:47:50;;;;;;;8.35;4.60;;;26.60;57.20;;;;;;4175428;28;20102;-63
2023/06/13 07:49:51;;;;;;;7.05;4.28;;;26.70;58.50;;;;;;4186183;28;20037;-63
2023/06/13 07:51:51;;;;;;;5.90;4.20;;;26.70;56.90;;;;;;4178644;28;20033;-63
2023/06/13 07:53:52;;;;;;;8.73;3.85;;;26.70;56.50;;;;;;4179202;28;20029;-63
2023/06/13 07:55:55;;;;;;;8.75;3.60;;;26.70;57.30;;;;;;4184603;28;20036;-63
2023/06/13 07:57:56;;;;;;;4.72;3.35;;;26.70;56.40;;;;;;4181576;28;20060;-63
2023/06/13 07:59:56;;;;;;;8.23;3.92;;;26.70;57.30;;;;;;4184714;28;20512;-63
2023/06/13 08:01:58;;;;;;;5.72;3.72;;;26.60;56.70;;;;;;4173278;28;20058;-66
2023/06/13 08:03:58;;;;;;;8.25;3.65;;;26.50;54.80;;;;;;4180863;28;20025;-64
2023/06/13 08:06:00;;;;;;;6.13;3.72;;;26.50;55.40;;;;;;4188815;28;20033;-64
2023/06/13 08:08:00;;;;;;;4.90;3.17;;;26.60;56.60;;;;;;4160105;28;20112;-63
2023/06/13 08:10:01;;;;;;;4.47;3.20;;;26.70;56.80;;;;;;4180305;28;20040;-64
2023/06/13 08:12:02;;;;;;;5.18;3.80;;;26.70;56.10;;;;;;4179262;28;20029;-64
2023/06/13 08:14:02;;;;;;;6.35;3.92;;;26.50;56.40;;;;;;4178850;28;20044;-63
2023/06/13 08:16:03;;;;;;;6.78;3.55;;;26.50;56.10;;;;;;4169032;28;20409;-64
2023/06/13 08:18:04;;;;;;;7.15;3.00;;;26.70;56.80;;;;;;4164831;28;20041;-63
2023/06/13 08:20:05;;;;;;;4.93;3.28;;;26.70;57.60;;;;;;4163849;28;20025;-64
2023/06/13 08:22:06;;;;;;;4.22;3.25;;;26.70;56.40;;;;;;4166218;28;20471;-63
2023/06/13 08:24:07;;;;;;;4.95;3.60;;;26.80;56.20;;;;;;4164301;28;20075;-63
2023/06/13 08:26:08;;;;;;;4.70;2.90;;;26.80;55.60;;;;;;4167075;28;20114;-63
2023/06/13 08:28:08;;;;;;;5.30;3.50;;;26.90;56.20;;;;;;4164151;28;20041;-63
2023/06/13 08:30:09;;;;;;;4.75;3.25;;;26.80;55.20;;;;;;4166632;28;20041;-64
2023/06/13 08:32:10;;;;;;;5.05;3.30;;;26.90;56.20;;;;;;4165604;28;20542;-63
2023/06/13 08:34:10;;;;;;;5.82;3.10;;;26.90;55.60;;;;;;4168297;28;20048;-64
2023/06/13 08:36:11;;;;;;;4.75;3.10;;;26.90;55.80;;;;;;4165465;28;20044;-64
2023/06/13 08:38:12;;;;;;;5.43;3.40;;;26.90;55.80;;;;;;4168730;28;20034;-63
2023/06/13 08:40:12;;;;;;;4.60;3.35;;;27.00;55.90;;;;;;4163304;28;20045;-64
2023/06/13 08:42:13;;;;;;;3.85;3.35;;;27.10;56.50;;;;;;4169270;28;20124;-63
2023/06/13 08:44:15;;;;;;;3.97;3.03;;;27.00;55.70;;;;;;4168008;28;20450;-64
2023/06/13 08:46:16;;;;;;;3.90;3.00;;;27.10;57.30;;;;;;4168869;28;20041;-63
2023/06/13 08:48:16;;;;;;;4.07;2.97;;;27.10;55.10;;;;;;4166384;28;20507;-63
2023/06/13 08:50:24;;;;;;;7.10;3.45;;;27.10;55.40;;;;;;4163447;28;20043;-64
2023/06/13 08:52:29;;;;;;;3.58;2.70;;;27.10;55.20;;;;;;4167931;28;20029;-64
2023/06/13 08:54:33;;;;;;;5.55;3.72;;;27.10;55.80;;;;;;4165541;28;20536;-64
2023/06/13 08:56:38;;;;;;;5.18;2.83;;;27.30;57.10;;;;;;4163966;28;20040;-64
2023/06/13 08:58:39;;;;;;;6.47;3.97;;;27.30;56.60;;;;;;4168283;28;20037;-63
2023/06/13 09:00:40;;;;;;;5.73;3.50;;;27.30;55.30;;;;;;4164207;28;20043;-63
2023/06/13 09:02:45;;;;;;;4.18;3.08;;;27.40;56.70;;;;;;4165401;28;20534;-64
2023/06/13 09:04:47;;;;;;;7.75;3.70;;;27.50;54.90;;;;;;4168505;28;20226;-64
2023/06/13 09:06:48;;;;;;;6.38;3.55;;;27.60;54.40;;;;;;4184691;28;20041;-64
2023/06/13 09:08:49;;;;;;;8.35;3.22;;;27.40;53.70;;;;;;4185257;28;20290;-64
2023/06/13 09:10:51;;;;;;;4.75;3.47;;;27.40;54.70;;;;;;4174490;28;20033;-63
2023/06/13 09:12:51;;;;;;;6.80;3.60;;;27.50;54.30;;;;;;4176141;28;20029;-64
2023/06/13 09:14:52;;;;;;;5.03;3.53;;;27.70;54.10;;;;;;4176707;28;20098;-63
2023/06/13 09:16:54;;;;;;;3.67;2.88;;;27.70;53.30;;;;;;4173671;28;20040;-64
2023/06/13 09:18:56;;;;;;;5.78;3.38;;;27.70;54.00;;;;;;4171890;28;20393;-64
2023/06/13 09:20:57;;;;;;;4.30;2.85;;;27.70;54.10;;;;;;4174810;28;20126;-64
2023/06/13 09:23:00;;;;;;;4.07;3.15;;;27.80;54.60;;;;;;4177204;28;20120;-64
2023/06/13 09:25:01;;;;;;;5.00;3.78;;;27.80;53.30;;;;;;4176674;28;20144;-65
2023/06/13 09:27:01;;;;;;;4.90;3.33;;;27.50;52.70;;;;;;4175807;28;20476;-64
2023/06/13 09:29:06;;;;;;;5.70;3.58;;;27.60;52.50;;;;;;4176237;28;20395;-64
2023/06/13 09:31:08;;;;;;;7.25;3.40;;;27.40;53.20;;;;;;4172291;28;20037;-64
2023/06/13 09:33:10;;;;;;;5.07;2.87;;;27.60;53.70;;;;;;4166441;28;20044;-64
2023/06/13 09:35:11;;;;;;;3.97;3.05;;;27.70;53.70;;;;;;4176397;28;20267;-66
2023/06/13 09:37:12;;;;;;;5.32;3.47;;;27.80;53.00;;;;;;4186738;28;20093;-64
2023/06/13 09:39:13;;;;;;;5.55;3.15;;;27.80;52.90;;;;;;4193504;28;20028;-64
2023/06/13 09:41:14;;;;;;;7.07;4.03;;;27.80;52.80;;;;;;4188998;28;20481;-64
2023/06/13 09:43:14;;;;;;;4.25;3.05;;;27.90;53.00;;;;;;4176216;28;20029;-64
2023/06/13 09:45:15;;;;;;;4.53;3.50;;;27.90;53.30;;;;;;4175107;28;20041;-64
2023/06/13 09:47:23;;;;;;;4.43;3.13;;;28.00;53.30;;;;;;4165674;28;20038;-64
2023/06/13 09:49:28;;;;;;;5.95;3.90;;;28.10;53.80;;;;;;4174941;28;20040;-64
2023/06/13 09:51:32;;;;;;;5.85;3.63;;;28.20;53.20;;;;;;4188467;28;20475;-64
2023/06/13 09:53:32;;;;;;;6.80;3.83;;;28.10;53.10;;;;;;4176481;28;20021;-64
2023/06/13 09:55:33;;;;;;;5.82;3.45;;;27.90;51.50;;;;;;4168060;28;20040;-64
2023/06/13 09:57:34;;;;;;;5.18;3.65;;;27.90;53.20;;;;;;4169892;28;20040;-64
2023/06/13 09:59:35;;;;;;;5.75;3.10;;;27.90;52.00;;;;;;4159331;28;20037;-64
2023/06/13 10:01:35;;;;;;;7.75;3.70;;;28.10;52.90;;;;;;4180357;28;20033;-64
2023/06/13 10:03:36;;;;;;;5.78;3.80;;;28.10;53.10;;;;;;4174538;28;20523;-64
2023/06/13 10:05:37;;;;;;;7.50;3.95;;;28.00;53.50;;;;;;4156974;28;20041;-64
2023/06/13 10:07:38;;;;;;;5.90;3.30;;;28.00;52.20;;;;;;4172806;28;20044;-64
2023/06/13 10:09:39;;;;;;;6.47;3.47;;;28.10;53.00;;;;;;4170226;28;20037;-63
2023/06/13 10:11:44;;;;;;;5.47;3.28;;;28.10;52.60;;;;;;4165141;28;20039;-64
2023/06/13 10:13:56;;;;;;;7.45;3.33;;;28.10;52.70;;;;;;4163479;28;20491;-64
2023/06/13 10:16:00;;;;;;;4.72;3.35;;;28.10;53.40;;;;;;4167753;28;20037;-64
2023/06/13 10:18:06;;;;;;;5.78;3.50;;;28.10;52.70;;;;;;4165193;28;20044;-63
2023/06/13 10:20:10;;;;;;;6.75;3.80;;;28.20;53.20;;;;;;4166768;28;20108;-64
2023/06/13 10:22:11;;;;;;;5.15;3.28;;;28.10;51.50;;;;;;4164579;28;20408;-64
2023/06/13 10:24:14;;;;;;;3.57;3.03;;;28.20;53.10;;;;;;4165322;28;20098;-64
2023/06/13 10:26:34;;;;;;;6.13;2.83;;;28.30;51.70;;;;;;4168629;28;20301;-64
2023/06/13 10:28:35;;;;;;;4.25;3.15;;;28.30;52.20;;;;;;4165533;28;20030;-64
2023/06/13 10:31:46;;;;;;;4.40;3.40;;;28.40;51.20;;;;;;4169545;28;20025;-64
2023/06/13 10:33:52;;;;;;;4.57;3.50;;;28.40;52.30;;;;;;4042286;29;20491;-64
2023/06/13 10:36:24;;;;;;;4.80;3.10;;;28.50;50.40;;;;;;4135148;28;20044;-64